createdAt,value
2019-05-22T00:00:30.363Z,99.90
2019-05-22T00:05:37.268Z,99.90
2019-05-22T00:08:08.652Z,99.90
2019-05-22T00:20:42.190Z,99.90
2019-05-22T00:23:15.407Z,99.90
2019-05-22T00:25:44.913Z,99.90
2019-05-22T00:28:15.447Z,99.90
2019-05-22T00:33:21.214Z,99.90
2019-05-22T00:35:53.050Z,99.90
2019-05-22T00:40:57.470Z,99.90
2019-05-22T00:43:34.126Z,99.90
2019-05-22T00:46:05.309Z,99.90
2019-05-22T00:48:36.464Z,99.90
2019-05-22T00:51:10.681Z,99.90
2019-05-22T00:53:58.062Z,99.90
2019-05-22T00:59:02.702Z,99.90
2019-05-22T01:01:39.590Z,99.90
2019-05-22T01:04:11.922Z,99.90
2019-05-22T01:06:42.965Z,99.90
2019-05-22T01:09:16.969Z,99.90
2019-05-22T01:11:48.056Z,99.90
2019-05-22T01:14:18.948Z,99.90
2019-05-22T01:21:49.016Z,99.90
2019-05-22T01:26:50.149Z,99.90
2019-05-22T01:29:23.253Z,99.90
2019-05-22T01:34:24.950Z,99.90
2019-05-22T01:36:56.442Z,99.90
2019-05-22T01:39:38.040Z,99.90
2019-05-22T01:42:10.563Z,99.90
2019-05-22T01:44:40.726Z,99.90
2019-05-22T01:49:51.539Z,99.90
2019-05-22T01:52:22.836Z,99.90
2019-05-22T01:55:59.863Z,99.90
2019-05-22T01:58:30.843Z,99.90
2019-05-22T02:01:02.370Z,99.90
2019-05-22T02:03:33.790Z,99.90
2019-05-22T02:06:05.397Z,99.90
2019-05-22T02:08:41.670Z,99.90
2019-05-22T02:11:13.420Z,99.90
2019-05-22T02:13:46.556Z,99.90
2019-05-22T02:16:16.892Z,99.90
2019-05-22T02:18:46.247Z,99.90
2019-05-22T02:21:17.081Z,99.90
2019-05-22T02:23:47.624Z,99.90
2019-05-22T02:26:18.094Z,99.90
2019-05-22T02:28:47.564Z,99.90
2019-05-22T02:31:18.561Z,99.90
2019-05-22T02:34:04.753Z,99.90
2019-05-22T02:36:34.977Z,99.90
2019-05-22T02:39:14.541Z,99.90
2019-05-22T02:41:48.355Z,99.90
2019-05-22T02:44:18.011Z,99.90
2019-05-22T02:46:47.580Z,99.90
2019-05-22T02:51:47.927Z,99.90
2019-05-22T02:54:17.758Z,99.90
2019-05-22T02:56:47.581Z,99.90
2019-05-22T03:01:48.856Z,99.90
2019-05-22T03:04:19.579Z,99.90
2019-05-22T03:06:49.245Z,99.90
2019-05-22T03:09:20.288Z,99.90
2019-05-22T03:11:54.951Z,99.90
2019-05-22T03:14:27.206Z,99.90
2019-05-22T03:17:04.653Z,99.90
2019-05-22T03:24:56.866Z,99.90
2019-05-22T03:27:43.414Z,99.90
2019-05-22T03:30:27.224Z,99.90
2019-05-22T03:32:59.385Z,99.90
2019-05-22T03:35:30.465Z,99.90
2019-05-22T03:38:02.006Z,99.90
2019-05-22T03:40:32.062Z,99.90
2019-05-22T03:43:04.014Z,99.90
2019-05-22T03:45:35.199Z,99.90
2019-05-22T03:48:05.117Z,99.90
2019-05-22T03:50:34.730Z,99.90
2019-05-22T03:53:07.337Z,99.90
2019-05-22T03:58:06.335Z,99.90
2019-05-22T04:05:42.466Z,99.90
2019-05-22T04:11:02.091Z,99.90
2019-05-22T04:13:34.429Z,99.90
2019-05-22T04:16:05.581Z,99.90
2019-05-22T04:18:36.069Z,99.90
2019-05-22T04:21:05.995Z,99.90
2019-05-22T04:26:08.839Z,99.90
2019-05-22T04:28:46.259Z,99.90
2019-05-22T04:31:16.143Z,99.90
2019-05-22T04:33:45.545Z,99.90
2019-05-22T04:36:15.810Z,99.90
2019-05-22T04:38:45.260Z,99.90
2019-05-22T04:41:14.601Z,99.90
2019-05-22T04:43:43.978Z,99.90
2019-05-22T04:46:13.415Z,99.90
2019-05-22T04:51:22.761Z,99.90
2019-05-22T04:53:52.721Z,99.90
2019-05-22T16:12:05.197Z,83.00
2019-05-22T16:14:35.170Z,83.10
2019-05-22T16:19:50.734Z,84.70
2019-05-22T16:22:20.415Z,85.70
2019-05-22T16:24:49.910Z,85.00
2019-05-22T16:27:19.425Z,84.80
2019-05-22T16:32:19.371Z,85.00
2019-05-22T16:34:49.148Z,84.80
2019-05-22T16:37:18.835Z,84.80
2019-05-22T16:39:50.461Z,84.20
2019-05-22T16:42:19.409Z,84.10
2019-05-22T16:44:49.813Z,83.70
2019-05-22T16:52:17.898Z,83.20
2019-05-22T16:54:47.557Z,83.00
2019-05-22T16:59:46.719Z,82.30
2019-05-22T17:02:16.944Z,82.50
2019-05-22T17:04:47.084Z,82.40
2019-05-22T17:07:16.427Z,82.50
2019-05-22T17:09:46.376Z,82.40
2019-05-22T17:12:18.310Z,82.70
2019-05-22T17:17:18.236Z,83.40
2019-05-22T17:19:47.612Z,83.40
2019-05-22T17:22:16.935Z,83.80
2019-05-22T17:24:46.525Z,84.00
2019-05-22T17:27:17.172Z,83.70
2019-05-22T17:29:48.715Z,83.70
2019-05-22T17:34:48.029Z,84.20
2019-05-22T17:37:21.097Z,84.20
2019-05-22T17:39:50.535Z,84.30
2019-05-22T17:42:20.366Z,84.40
2019-05-22T17:47:22.518Z,83.80
2019-05-22T17:49:52.123Z,84.10
2019-05-22T17:52:22.183Z,83.50
2019-05-22T17:54:52.061Z,83.40
2019-05-22T17:59:52.618Z,83.40
2019-05-22T18:02:24.702Z,83.20
2019-05-22T18:04:54.262Z,83.20
2019-05-22T18:07:24.096Z,83.30
2019-05-22T18:09:53.933Z,83.20
2019-05-22T18:12:24.739Z,83.00
2019-05-22T18:14:54.018Z,83.30
2019-05-22T18:19:53.324Z,83.50
2019-05-22T18:23:54.892Z,83.60
2019-05-22T18:26:24.513Z,83.60
2019-05-22T18:28:53.974Z,84.10
2019-05-22T18:31:23.369Z,84.10
2019-05-22T18:36:21.987Z,84.30
2019-05-22T18:38:51.608Z,84.40
2019-05-22T18:41:21.030Z,84.60
2019-05-22T18:43:50.671Z,84.80
2019-05-22T18:46:20.323Z,85.10
2019-05-22T18:48:50.760Z,85.20
2019-05-22T18:51:20.111Z,85.50
2019-05-22T18:53:49.754Z,85.50
2019-05-22T18:56:19.083Z,85.60
2019-05-22T18:58:48.665Z,85.70
2019-05-22T19:01:21.490Z,85.80
2019-05-22T19:03:51.718Z,85.90
2019-05-22T19:06:30.730Z,86.40
2019-05-22T19:08:59.246Z,86.50
2019-05-22T19:13:57.879Z,86.80
2019-05-22T19:16:27.492Z,88.20
2019-05-22T19:21:27.416Z,91.90
2019-05-22T19:29:02.739Z,93.00
2019-05-22T19:31:32.729Z,93.00
2019-05-22T19:34:02.623Z,92.70
2019-05-22T19:39:01.330Z,92.40
2019-05-22T19:41:31.335Z,92.80
2019-05-22T19:46:29.740Z,92.00
2019-05-22T19:48:59.188Z,92.60
2019-05-22T19:51:28.526Z,91.30
2019-05-22T19:56:28.260Z,91.50
2019-05-22T20:01:27.237Z,91.20
2019-05-22T20:08:54.804Z,91.20
2019-05-22T20:11:24.654Z,91.40
2019-05-22T20:13:53.987Z,90.90
2019-05-22T20:18:52.342Z,90.90
2019-05-22T20:23:51.100Z,90.60
2019-05-22T20:26:21.199Z,90.60
2019-05-22T20:28:50.946Z,90.40
2019-05-22T20:31:57.157Z,90.70
2019-05-22T20:34:26.596Z,90.70
2019-05-22T20:36:55.968Z,90.90
2019-05-22T20:39:29.313Z,91.10
2019-05-22T20:41:56.517Z,91.10
2019-05-22T20:44:26.447Z,91.20
2019-05-22T20:46:56.799Z,91.10
2019-05-22T20:49:26.610Z,91.20
2019-05-22T20:54:26.707Z,91.20
2019-05-22T20:56:57.175Z,91.40
2019-05-22T20:59:27.235Z,91.30
2019-05-22T21:04:27.453Z,91.50
2019-05-22T21:11:59.757Z,91.80
2019-05-22T21:16:59.351Z,91.70
2019-05-22T21:19:29.259Z,91.80
2019-05-22T21:24:28.766Z,91.80
2019-05-22T21:26:58.109Z,91.80
2019-05-22T21:29:27.988Z,91.90
2019-05-22T21:34:26.323Z,91.90
2019-05-22T21:39:24.859Z,92.10
2019-05-22T21:41:54.377Z,91.90
2019-05-22T21:44:23.864Z,92.00
2019-05-22T21:46:53.952Z,92.20
2019-05-22T21:54:22.968Z,92.50
2019-05-22T21:56:52.344Z,92.40
2019-05-22T21:59:21.760Z,92.40
2019-05-22T22:01:55.647Z,92.60
2019-05-22T22:04:26.653Z,92.70
2019-05-22T22:09:26.633Z,92.50
2019-05-22T22:14:26.702Z,92.50
2019-05-22T22:16:57.813Z,92.60
2019-05-22T22:19:28.291Z,92.80
2019-05-22T22:21:57.675Z,92.80
2019-05-22T22:24:28.115Z,92.80
2019-05-22T22:26:57.757Z,92.80
2019-05-22T22:29:27.368Z,92.70
2019-05-22T22:31:59.169Z,92.50
2019-05-22T22:34:34.613Z,92.60
2019-05-22T22:37:04.535Z,92.70
2019-05-22T22:39:34.940Z,92.90
2019-05-22T22:42:04.622Z,92.90
2019-05-22T22:44:35.799Z,93.00
2019-05-22T22:47:13.849Z,93.10
2019-05-22T22:49:44.074Z,93.00
2019-05-22T22:54:44.258Z,93.00
2019-05-22T22:57:13.702Z,93.00
2019-05-22T22:59:43.388Z,93.10
2019-05-22T23:04:05.530Z,93.20
2019-05-22T23:06:36.305Z,93.30
2019-05-22T23:11:40.632Z,93.20
2019-05-22T23:14:10.145Z,93.20
2019-05-22T23:16:40.867Z,93.10
2019-05-22T23:19:17.092Z,93.20
2019-05-22T23:24:16.871Z,93.20
2019-05-22T23:26:47.563Z,93.30
2019-05-22T23:34:35.638Z,93.40
2019-05-22T23:37:06.918Z,93.50
2019-05-22T23:39:36.369Z,93.50
2019-05-22T23:42:16.282Z,93.30
2019-05-22T23:44:46.597Z,93.30
2019-05-22T23:47:16.026Z,93.20
2019-05-22T23:52:17.572Z,93.20
2019-05-22T23:54:48.607Z,93.30
2019-05-22T23:57:27.569Z,93.20
